sensor_id;sensor_type;location;lat;lon;timestamp;pressure;altitude;pressure_sealevel;temperature;humidity
77207;BME280;66190;50.708;7.906;2023-12-29T00:02:15;96002.81;;;6.71;95.70
77207;BME280;66190;50.708;7.906;2023-12-29T00:04:41;96006.69;;;6.69;95.92
77207;BME280;66190;50.708;7.906;2023-12-29T00:07:07;96004.91;;;6.76;95.52
77207;BME280;66190;50.708;7.906;2023-12-29T00:09:33;96005.28;;;6.73;95.72
77207;BME280;66190;50.708;7.906;2023-12-29T00:12:03;96006.13;;;6.73;95.77
77207;BME280;66190;50.708;7.906;2023-12-29T00:14:29;96006.69;;;6.69;96.04
77207;BME280;66190;50.708;7.906;2023-12-29T00:16:54;95995.69;;;6.78;95.64
77207;BME280;66190;50.708;7.906;2023-12-29T00:19:22;95998.75;;;6.75;95.80
77207;BME280;66190;50.708;7.906;2023-12-29T00:21:47;95997.31;;;6.79;95.60
77207;BME280;66190;50.708;7.906;2023-12-29T00:24:13;95997.41;;;6.86;94.98
77207;BME280;66190;50.708;7.906;2023-12-29T00:26:38;95999.84;;;6.81;94.89
77207;BME280;66190;50.708;7.906;2023-12-29T00:29:04;96006.06;;;6.88;94.51
77207;BME280;66190;50.708;7.906;2023-12-29T00:31:31;96012.44;;;6.87;94.47
77207;BME280;66190;50.708;7.906;2023-12-29T00:33:57;96017.78;;;6.87;94.80
77207;BME280;66190;50.708;7.906;2023-12-29T00:36:23;96020.06;;;6.90;94.56
77207;BME280;66190;50.708;7.906;2023-12-29T00:38:48;96013.91;;;6.89;94.77
77207;BME280;66190;50.708;7.906;2023-12-29T00:41:14;96020.69;;;6.92;94.26
77207;BME280;66190;50.708;7.906;2023-12-29T00:43:39;96019.31;;;6.96;94.23
77207;BME280;66190;50.708;7.906;2023-12-29T00:46:05;96016.06;;;7.01;93.96
77207;BME280;66190;50.708;7.906;2023-12-29T00:48:31;96019.38;;;7.03;93.97
77207;BME280;66190;50.708;7.906;2023-12-29T00:50:57;96013.47;;;7.07;93.41
77207;BME280;66190;50.708;7.906;2023-12-29T00:53:22;96011.75;;;7.00;93.88
77207;BME280;66190;50.708;7.906;2023-12-29T00:55:48;95997.13;;;7.02;93.66
77207;BME280;66190;50.708;7.906;2023-12-29T00:58:13;95985.25;;;7.05;93.75
77207;BME280;66190;50.708;7.906;2023-12-29T01:00:39;95986.88;;;7.06;93.52
77207;BME280;66190;50.708;7.906;2023-12-29T01:03:05;95989.38;;;7.07;93.60
77207;BME280;66190;50.708;7.906;2023-12-29T01:05:30;95984.84;;;7.08;93.47
77207;BME280;66190;50.708;7.906;2023-12-29T01:07:55;95982.81;;;7.10;93.44
77207;BME280;66190;50.708;7.906;2023-12-29T01:10:21;95986.88;;;7.06;93.81
77207;BME280;66190;50.708;7.906;2023-12-29T01:12:47;95976.81;;;7.08;93.78
77207;BME280;66190;50.708;7.906;2023-12-29T01:15:13;95970.28;;;7.10;93.58
77207;BME280;66190;50.708;7.906;2023-12-29T01:17:38;95954.03;;;7.12;93.51
77207;BME280;66190;50.708;7.906;2023-12-29T01:20:04;95953.63;;;7.15;93.03
77207;BME280;66190;50.708;7.906;2023-12-29T01:22:30;95948.88;;;7.10;93.39
77207;BME280;66190;50.708;7.906;2023-12-29T01:24:55;95955.88;;;7.11;93.48
77207;BME280;66190;50.708;7.906;2023-12-29T01:27:21;95955.44;;;7.08;93.42
77207;BME280;66190;50.708;7.906;2023-12-29T01:29:46;95949.88;;;7.09;93.48
77207;BME280;66190;50.708;7.906;2023-12-29T01:32:12;95946.19;;;7.10;93.44
77207;BME280;66190;50.708;7.906;2023-12-29T01:34:37;95946.59;;;7.07;93.81
77207;BME280;66190;50.708;7.906;2023-12-29T01:37:03;95952.69;;;7.01;94.01
77207;BME280;66190;50.708;7.906;2023-12-29T01:39:29;95942.28;;;7.13;93.59
77207;BME280;66190;50.708;7.906;2023-12-29T01:41:55;95940.66;;;7.12;93.59
77207;BME280;66190;50.708;7.906;2023-12-29T01:44:22;95935.50;;;7.10;93.71
77207;BME280;66190;50.708;7.906;2023-12-29T01:46:52;95942.06;;;7.08;93.51
77207;BME280;66190;50.708;7.906;2023-12-29T01:49:19;95946.19;;;7.10;93.64
77207;BME280;66190;50.708;7.906;2023-12-29T01:51:49;95935.69;;;7.09;93.47
77207;BME280;66190;50.708;7.906;2023-12-29T01:54:16;95941.03;;;7.09;93.61
77207;BME280;66190;50.708;7.906;2023-12-29T01:56:43;95943.91;;;7.07;93.08
77207;BME280;66190;50.708;7.906;2023-12-29T01:59:09;95933.47;;;7.12;93.12
77207;BME280;66190;50.708;7.906;2023-12-29T02:01:35;95929.75;;;7.13;93.31
77207;BME280;66190;50.708;7.906;2023-12-29T02:04:04;95924.00;;;7.16;92.34
77207;BME280;66190;50.708;7.906;2023-12-29T02:06:31;95916.81;;;7.17;92.16
77207;BME280;66190;50.708;7.906;2023-12-29T02:08:58;95922.38;;;7.15;92.21
77207;BME280;66190;50.708;7.906;2023-12-29T02:11:24;95912.50;;;7.16;91.82
77207;BME280;66190;50.708;7.906;2023-12-29T02:13:50;95911.06;;;7.20;91.72
77207;BME280;66190;50.708;7.906;2023-12-29T02:16:44;95916.22;;;7.21;91.62
77207;BME280;66190;50.708;7.906;2023-12-29T02:19:40;95912.34;;;7.24;91.60
77207;BME280;66190;50.708;7.906;2023-12-29T02:22:06;95917.25;;;7.20;91.25
77207;BME280;66190;50.708;7.906;2023-12-29T02:24:34;95910.09;;;7.27;90.70
77207;BME280;66190;50.708;7.906;2023-12-29T02:29:34;95917.69;;;7.24;90.53
77207;BME280;66190;50.708;7.906;2023-12-29T02:32:03;95946.97;;;7.32;90.41
77207;BME280;66190;50.708;7.906;2023-12-29T02:34:32;95928.47;;;7.37;90.07
77207;BME280;66190;50.708;7.906;2023-12-29T02:36:58;95926.00;;;7.35;90.23
77207;BME280;66190;50.708;7.906;2023-12-29T02:39:24;95918.81;;;7.36;90.28
77207;BME280;66190;50.708;7.906;2023-12-29T02:41:50;95907.69;;;7.39;90.26
77207;BME280;66190;50.708;7.906;2023-12-29T02:44:15;95921.69;;;7.34;90.48
77207;BME280;66190;50.708;7.906;2023-12-29T02:46:41;95900.91;;;7.36;90.36
77207;BME280;66190;50.708;7.906;2023-12-29T02:49:06;95911.41;;;7.38;89.92
77207;BME280;66190;50.708;7.906;2023-12-29T02:51:36;95903.63;;;7.43;90.02
77207;BME280;66190;50.708;7.906;2023-12-29T02:54:02;95894.13;;;7.40;89.94
77207;BME280;66190;50.708;7.906;2023-12-29T02:56:28;95892.06;;;7.42;90.13
77207;BME280;66190;50.708;7.906;2023-12-29T02:58:53;95898.66;;;7.40;89.88
77207;BME280;66190;50.708;7.906;2023-12-29T03:01:18;95879.31;;;7.38;90.11
77207;BME280;66190;50.708;7.906;2023-12-29T03:03:44;95885.28;;;7.40;90.33
77207;BME280;66190;50.708;7.906;2023-12-29T03:06:09;95894.13;;;7.40;90.35
77207;BME280;66190;50.708;7.906;2023-12-29T03:08:35;95878.25;;;7.39;90.69
77207;BME280;66190;50.708;7.906;2023-12-29T03:11:00;95899.88;;;7.37;90.83
77207;BME280;66190;50.708;7.906;2023-12-29T03:13:25;95885.28;;;7.40;91.01
77207;BME280;66190;50.708;7.906;2023-12-29T03:15:51;95895.16;;;7.39;90.86
77207;BME280;66190;50.708;7.906;2023-12-29T03:18:16;95884.66;;;7.38;91.02
77207;BME280;66190;50.708;7.906;2023-12-29T03:20:41;95887.53;;;7.36;91.23
77207;BME280;66190;50.708;7.906;2023-12-29T03:23:07;95888.16;;;7.38;91.40
77207;BME280;66190;50.708;7.906;2023-12-29T03:25:32;95890.19;;;7.36;91.48
77207;BME280;66190;50.708;7.906;2023-12-29T03:27:58;95880.50;;;7.35;91.49
77207;BME280;66190;50.708;7.906;2023-12-29T03:30:24;95879.06;;;7.33;91.57
77207;BME280;66190;50.708;7.906;2023-12-29T03:32:49;95870.84;;;7.34;91.84
77207;BME280;66190;50.708;7.906;2023-12-29T03:35:15;95872.47;;;7.35;91.67
77207;BME280;66190;50.708;7.906;2023-12-29T03:37:41;95869.00;;;7.35;91.93
77207;BME280;66190;50.708;7.906;2023-12-29T03:40:07;95860.34;;;7.33;92.16
77207;BME280;66190;50.708;7.906;2023-12-29T03:42:33;95864.44;;;7.35;92.07
77207;BME280;66190;50.708;7.906;2023-12-29T03:44:58;95878.66;;;7.36;92.03
77207;BME280;66190;50.708;7.906;2023-12-29T03:47:24;95872.88;;;7.32;91.94
77207;BME280;66190;50.708;7.906;2023-12-29T03:49:49;95855.84;;;7.40;91.71
77207;BME280;66190;50.708;7.906;2023-12-29T03:52:15;95853.94;;;7.34;91.96
77207;BME280;66190;50.708;7.906;2023-12-29T03:54:40;95852.97;;;7.41;91.54
77207;BME280;66190;50.708;7.906;2023-12-29T03:57:05;95845.78;;;7.42;91.89
77207;BME280;66190;50.708;7.906;2023-12-29T03:59:31;95842.84;;;7.37;92.01
77207;BME280;66190;50.708;7.906;2023-12-29T04:01:56;95848.81;;;7.39;92.18
77207;BME280;66190;50.708;7.906;2023-12-29T04:04:22;95834.59;;;7.32;92.29
77207;BME280;66190;50.708;7.906;2023-12-29T04:06:47;95838.97;;;7.39;92.04
77207;BME280;66190;50.708;7.906;2023-12-29T04:09:13;95824.09;;;7.37;92.19
77207;BME280;66190;50.708;7.906;2023-12-29T04:11:38;95829.63;;;7.29;92.37
77207;BME280;66190;50.708;7.906;2023-12-29T04:14:03;95830.50;;;7.36;92.21
77207;BME280;66190;50.708;7.906;2023-12-29T04:16:29;95848.38;;;7.29;92.54
77207;BME280;66190;50.708;7.906;2023-12-29T04:18:54;95845.72;;;7.35;92.01
77207;BME280;66190;50.708;7.906;2023-12-29T04:21:20;95841.59;;;7.33;92.38
77207;BME280;66190;50.708;7.906;2023-12-29T04:23:45;95851.91;;;7.36;92.50
77207;BME280;66190;50.708;7.906;2023-12-29T04:26:10;95857.47;;;7.34;92.51
77207;BME280;66190;50.708;7.906;2023-12-29T04:28:36;95831.34;;;7.36;92.28
77207;BME280;66190;50.708;7.906;2023-12-29T04:31:01;95836.88;;;7.35;92.36
77207;BME280;66190;50.708;7.906;2023-12-29T04:33:28;95836.50;;;7.38;92.25
77207;BME280;66190;50.708;7.906;2023-12-29T04:35:53;95852.09;;;7.34;92.60
77207;BME280;66190;50.708;7.906;2023-12-29T04:38:18;95860.81;;;7.43;92.10
77207;BME280;66190;50.708;7.906;2023-12-29T04:40:46;95846.97;;;7.39;91.31
77207;BME280;66190;50.708;7.906;2023-12-29T04:43:12;95840.84;;;7.45;91.55
77207;BME280;66190;50.708;7.906;2023-12-29T04:45:38;95848.88;;;7.45;91.41
77207;BME280;66190;50.708;7.906;2023-12-29T04:48:04;95858.34;;;7.48;90.97
77207;BME280;66190;50.708;7.906;2023-12-29T04:50:29;95848.06;;;7.51;90.64
77207;BME280;66190;50.708;7.906;2023-12-29T04:52:54;95833.28;;;7.55;90.57
77207;BME280;66190;50.708;7.906;2023-12-29T04:55:20;95827.31;;;7.60;89.92
77207;BME280;66190;50.708;7.906;2023-12-29T04:57:45;95840.13;;;7.64;89.89
77207;BME280;66190;50.708;7.906;2023-12-29T05:00:11;95831.47;;;7.62;89.46
77207;BME280;66190;50.708;7.906;2023-12-29T05:02:38;95817.03;;;7.63;89.63
77207;BME280;66190;50.708;7.906;2023-12-29T05:05:03;95822.59;;;7.62;89.80
77207;BME280;66190;50.708;7.906;2023-12-29T05:07:29;95816.19;;;7.63;89.81
77207;BME280;66190;50.708;7.906;2023-12-29T05:09:55;95802.66;;;7.64;89.91
77207;BME280;66190;50.708;7.906;2023-12-29T05:12:20;95807.38;;;7.69;89.81
77207;BME280;66190;50.708;7.906;2023-12-29T05:14:46;95817.66;;;7.65;89.73
77207;BME280;66190;50.708;7.906;2023-12-29T05:17:11;95819.31;;;7.66;90.01
77207;BME280;66190;50.708;7.906;2023-12-29T05:19:36;95819.72;;;7.63;90.05
77207;BME280;66190;50.708;7.906;2023-12-29T05:22:02;95823.22;;;7.64;90.24
77207;BME280;66190;50.708;7.906;2023-12-29T05:24:27;95816.63;;;7.60;90.47
77207;BME280;66190;50.708;7.906;2023-12-29T05:26:53;95816.19;;;7.63;90.28
77207;BME280;66190;50.708;7.906;2023-12-29T05:29:18;95827.94;;;7.62;90.47
77207;BME280;66190;50.708;7.906;2023-12-29T05:31:43;95825.06;;;7.63;90.50
77207;BME280;66190;50.708;7.906;2023-12-29T05:34:09;95810.63;;;7.58;90.85
77207;BME280;66190;50.708;7.906;2023-12-29T05:36:35;95825.25;;;7.55;91.12
77207;BME280;66190;50.708;7.906;2023-12-29T05:39:01;95826.88;;;7.56;91.17
77207;BME280;66190;50.708;7.906;2023-12-29T05:41:27;95832.00;;;7.51;91.35
77207;BME280;66190;50.708;7.906;2023-12-29T05:43:53;95825.06;;;7.57;91.26
77207;BME280;66190;50.708;7.906;2023-12-29T05:46:18;95832.25;;;7.56;91.59
77207;BME280;66190;50.708;7.906;2023-12-29T05:48:43;95835.31;;;7.53;91.70
77207;BME280;66190;50.708;7.906;2023-12-29T05:51:10;95832.88;;;7.58;91.59
77207;BME280;66190;50.708;7.906;2023-12-29T05:53:36;95839.28;;;7.57;91.90
77207;BME280;66190;50.708;7.906;2023-12-29T05:56:02;95849.97;;;7.57;91.47
77207;BME280;66190;50.708;7.906;2023-12-29T05:58:28;95869.91;;;7.55;91.75
77207;BME280;66190;50.708;7.906;2023-12-29T06:00:54;95867.25;;;7.55;91.48
77207;BME280;66190;50.708;7.906;2023-12-29T06:03:20;95858.47;;;7.67;91.25
77207;BME280;66190;50.708;7.906;2023-12-29T06:05:45;95860.69;;;7.57;91.56
77207;BME280;66190;50.708;7.906;2023-12-29T06:08:11;95868.72;;;7.57;91.42
77207;BME280;66190;50.708;7.906;2023-12-29T06:10:36;95859.00;;;7.56;91.71
77207;BME280;66190;50.708;7.906;2023-12-29T06:13:02;95858.81;;;7.58;91.58
77207;BME280;66190;50.708;7.906;2023-12-29T06:15:28;95876.53;;;7.59;91.80
77207;BME280;66190;50.708;7.906;2023-12-29T06:17:54;95882.88;;;7.51;91.90
77207;BME280;66190;50.708;7.906;2023-12-29T06:20:19;95877.94;;;7.55;92.03
77207;BME280;66190;50.708;7.906;2023-12-29T06:22:45;95890.91;;;7.51;92.35
77207;BME280;66190;50.708;7.906;2023-12-29T06:25:11;95888.22;;;7.51;92.89
77207;BME280;66190;50.708;7.906;2023-12-29T06:27:37;95889.06;;;7.52;92.86
77207;BME280;66190;50.708;7.906;2023-12-29T06:30:12;95887.78;;;7.48;93.65
77207;BME280;66190;50.708;7.906;2023-12-29T06:32:38;95908.13;;;7.42;95.18
77207;BME280;66190;50.708;7.906;2023-12-29T06:35:05;95892.66;;;7.31;96.51
77207;BME280;66190;50.708;7.906;2023-12-29T06:37:31;95890.75;;;7.25;97.65
77207;BME280;66190;50.708;7.906;2023-12-29T06:39:57;95877.56;;;7.24;97.87
77207;BME280;66190;50.708;7.906;2023-12-29T06:42:22;95879.41;;;7.23;98.91
77207;BME280;66190;50.708;7.906;2023-12-29T06:44:48;95875.09;;;7.22;99.23
77207;BME280;66190;50.708;7.906;2023-12-29T06:47:14;95878.09;;;7.13;99.74
77207;BME280;66190;50.708;7.906;2023-12-29T06:49:39;95873.59;;;7.13;99.81
77207;BME280;66190;50.708;7.906;2023-12-29T06:52:06;95868.66;;;7.17;100.00
77207;BME280;66190;50.708;7.906;2023-12-29T06:54:31;95879.81;;;7.20;99.66
77207;BME280;66190;50.708;7.906;2023-12-29T06:56:56;95883.88;;;7.16;99.67
77207;BME280;66190;50.708;7.906;2023-12-29T06:59:22;95866.81;;;7.17;99.65
77207;BME280;66190;50.708;7.906;2023-12-29T07:01:48;95899.38;;;7.21;99.48
77207;BME280;66190;50.708;7.906;2023-12-29T07:04:13;95875.31;;;7.27;99.28
77207;BME280;66190;50.708;7.906;2023-12-29T07:06:40;95877.75;;;7.22;99.35
77207;BME280;66190;50.708;7.906;2023-12-29T07:09:06;95873.06;;;7.24;99.21
77207;BME280;66190;50.708;7.906;2023-12-29T07:11:32;95869.09;;;7.20;99.48
77207;BME280;66190;50.708;7.906;2023-12-29T07:13:58;95872.22;;;7.24;99.44
77207;BME280;66190;50.708;7.906;2023-12-29T07:16:23;95873.06;;;7.24;99.62
77207;BME280;66190;50.708;7.906;2023-12-29T07:18:49;95865.03;;;7.24;99.55
77207;BME280;66190;50.708;7.906;2023-12-29T07:21:15;95871.16;;;7.18;99.96
77207;BME280;66190;50.708;7.906;2023-12-29T07:23:42;95869.94;;;7.21;100.00
77207;BME280;66190;50.708;7.906;2023-12-29T07:26:07;95860.25;;;7.20;100.00
77207;BME280;66190;50.708;7.906;2023-12-29T07:28:33;95864.78;;;7.19;100.00
77207;BME280;66190;50.708;7.906;2023-12-29T07:30:59;95873.41;;;7.21;100.00
77207;BME280;66190;50.708;7.906;2023-12-29T07:33:25;95871.16;;;7.18;100.00
77207;BME280;66190;50.708;7.906;2023-12-29T07:35:50;95874.44;;;7.20;100.00
77207;BME280;66190;50.708;7.906;2023-12-29T07:38:16;95873.25;;;7.23;100.00
77207;BME280;66190;50.708;7.906;2023-12-29T07:40:42;95869.75;;;7.22;100.00
77207;BME280;66190;50.708;7.906;2023-12-29T07:43:07;95869.69;;;7.16;100.00
77207;BME280;66190;50.708;7.906;2023-12-29T07:45:33;95870.50;;;7.16;100.00
77207;BME280;66190;50.708;7.906;2023-12-29T07:47:58;95861.06;;;7.20;100.00
77207;BME280;66190;50.708;7.906;2023-12-29T07:50:24;95858.19;;;7.22;100.00
77207;BME280;66190;50.708;7.906;2023-12-29T07:52:49;95849.53;;;7.20;100.00
77207;BME280;66190;50.708;7.906;2023-12-29T07:55:15;95844.63;;;7.23;100.00
77207;BME280;66190;50.708;7.906;2023-12-29T07:57:43;95838.03;;;7.19;100.00
77207;BME280;66190;50.708;7.906;2023-12-29T08:00:09;95848.72;;;7.19;100.00
77207;BME280;66190;50.708;7.906;2023-12-29T08:02:35;95845.84;;;7.21;100.00
77207;BME280;66190;50.708;7.906;2023-12-29T08:05:01;95850.84;;;7.30;100.00
77207;BME280;66190;50.708;7.906;2023-12-29T08:07:26;95846.66;;;7.21;100.00
77207;BME280;66190;50.708;7.906;2023-12-29T08:09:52;95851.66;;;7.24;100.00
77207;BME280;66190;50.708;7.906;2023-12-29T08:12:17;95846.66;;;7.21;100.00
77207;BME280;66190;50.708;7.906;2023-12-29T08:14:43;95846.06;;;7.19;100.00
77207;BME280;66190;50.708;7.906;2023-12-29T08:17:08;95845.66;;;7.22;100.00
77207;BME280;66190;50.708;7.906;2023-12-29T08:19:34;95847.97;;;7.32;100.00
77207;BME280;66190;50.708;7.906;2023-12-29T08:21:59;95848.38;;;7.29;100.00
77207;BME280;66190;50.708;7.906;2023-12-29T08:24:25;95847.94;;;7.25;100.00
77207;BME280;66190;50.708;7.906;2023-12-29T08:26:50;95851.69;;;7.31;100.00
77207;BME280;66190;50.708;7.906;2023-12-29T08:29:16;95847.41;;;7.36;100.00
77207;BME280;66190;50.708;7.906;2023-12-29T08:31:42;95847.19;;;7.38;100.00
77207;BME280;66190;50.708;7.906;2023-12-29T08:34:08;95837.34;;;7.45;100.00
77207;BME280;66190;50.708;7.906;2023-12-29T08:36:34;95832.00;;;7.45;100.00
77207;BME280;66190;50.708;7.906;2023-12-29T08:38:59;95831.78;;;7.46;100.00
77207;BME280;66190;50.708;7.906;2023-12-29T08:41:25;95836.09;;;7.47;100.00
77207;BME280;66190;50.708;7.906;2023-12-29T08:43:50;95842.94;;;7.50;100.00
77207;BME280;66190;50.708;7.906;2023-12-29T08:46:16;95827.94;;;7.55;100.00
77207;BME280;66190;50.708;7.906;2023-12-29T08:48:41;95826.44;;;8.00;100.00
77207;BME280;66190;50.708;7.906;2023-12-29T08:51:06;95830.59;;;8.09;98.01
77207;BME280;66190;50.708;7.906;2023-12-29T08:53:32;95830.56;;;8.02;96.46
77207;BME280;66190;50.708;7.906;2023-12-29T08:56:01;95824.75;;;7.86;97.64
77207;BME280;66190;50.708;7.906;2023-12-29T08:58:27;95816.50;;;7.81;98.00
77207;BME280;66190;50.708;7.906;2023-12-29T09:00:52;95840.56;;;7.74;98.16
77207;BME280;66190;50.708;7.906;2023-12-29T09:03:18;95839.53;;;7.75;98.04
77207;BME280;66190;50.708;7.906;2023-12-29T09:05:43;95842.84;;;7.77;98.42
77207;BME280;66190;50.708;7.906;2023-12-29T09:08:09;95838.94;;;7.80;98.17
77207;BME280;66190;50.708;7.906;2023-12-29T09:10:34;95833.19;;;7.83;98.07
77207;BME280;66190;50.708;7.906;2023-12-29T09:12:59;95830.50;;;7.83;97.83
77207;BME280;66190;50.708;7.906;2023-12-29T09:15:25;95841.81;;;7.78;98.01
77207;BME280;66190;50.708;7.906;2023-12-29T09:17:50;95847.41;;;7.83;97.88
77207;BME280;66190;50.708;7.906;2023-12-29T09:20:16;95835.66;;;7.84;97.94
77207;BME280;66190;50.708;7.906;2023-12-29T09:22:42;95843.28;;;7.94;97.95
77207;BME280;66190;50.708;7.906;2023-12-29T09:25:08;95854.41;;;7.84;98.18
77207;BME280;66190;50.708;7.906;2023-12-29T09:27:33;95843.50;;;7.92;98.00
77207;BME280;66190;50.708;7.906;2023-12-29T09:29:58;95852.56;;;7.91;97.81
77207;BME280;66190;50.708;7.906;2023-12-29T09:32:24;95847.00;;;7.93;97.56
77207;BME280;66190;50.708;7.906;2023-12-29T09:34:49;95848.66;;;7.94;97.38
77207;BME280;66190;50.708;7.906;2023-12-29T09:37:15;95849.31;;;8.02;97.14
77207;BME280;66190;50.708;7.906;2023-12-29T09:39:40;95856.31;;;7.97;97.49
77207;BME280;66190;50.708;7.906;2023-12-29T09:42:07;95867.81;;;7.91;97.53
77207;BME280;66190;50.708;7.906;2023-12-29T09:44:35;95856.94;;;8.05;97.42
77207;BME280;66190;50.708;7.906;2023-12-29T09:47:02;95870.13;;;8.00;97.12
77207;BME280;66190;50.708;7.906;2023-12-29T09:49:37;95859.22;;;8.02;97.24
77207;BME280;66190;50.708;7.906;2023-12-29T09:52:09;95863.94;;;8.00;97.39
77207;BME280;66190;50.708;7.906;2023-12-29T09:54:35;95857.75;;;7.99;97.37
77207;BME280;66190;50.708;7.906;2023-12-29T09:57:02;95854.47;;;8.04;97.26
77207;BME280;66190;50.708;7.906;2023-12-29T09:59:29;95881.66;;;8.01;97.04
77207;BME280;66190;50.708;7.906;2023-12-29T10:01:55;95879.59;;;8.03;96.67
77207;BME280;66190;50.708;7.906;2023-12-29T10:04:21;95853.03;;;8.08;96.71
77207;BME280;66190;50.708;7.906;2023-12-29T10:06:49;95877.97;;;8.08;96.81
77207;BME280;66190;50.708;7.906;2023-12-29T10:09:16;95866.84;;;8.12;96.82
77207;BME280;66190;50.708;7.906;2023-12-29T10:11:47;95870.34;;;8.12;96.89
77207;BME280;66190;50.708;7.906;2023-12-29T10:14:52;95859.22;;;8.08;96.70
77207;BME280;66190;50.708;7.906;2023-12-29T10:17:52;95872.63;;;8.08;97.48
77207;BME280;66190;50.708;7.906;2023-12-29T10:20:38;95862.50;;;8.04;98.20
77207;BME280;66190;50.708;7.906;2023-12-29T10:23:08;95891.94;;;7.97;99.08
77207;BME280;66190;50.708;7.906;2023-12-29T10:25:34;95862.31;;;8.05;99.09
77207;BME280;66190;50.708;7.906;2023-12-29T10:28:01;95861.88;;;7.95;98.80
77207;BME280;66190;50.708;7.906;2023-12-29T10:30:28;95881.22;;;7.97;98.90
77207;BME280;66190;50.708;7.906;2023-12-29T10:32:54;95891.34;;;7.95;98.84
77207;BME280;66190;50.708;7.906;2023-12-29T10:35:19;95884.53;;;7.99;98.50
77207;BME280;66190;50.708;7.906;2023-12-29T10:37:45;95868.47;;;7.99;98.30
77207;BME280;66190;50.708;7.906;2023-12-29T10:40:17;95873.44;;;8.02;98.52
77207;BME280;66190;50.708;7.906;2023-12-29T10:42:56;95878.78;;;8.02;98.33
77207;BME280;66190;50.708;7.906;2023-12-29T10:45:23;95869.91;;;8.02;98.51
77207;BME280;66190;50.708;7.906;2023-12-29T10:47:50;95862.72;;;8.02;97.89
77207;BME280;66190;50.708;7.906;2023-12-29T10:50:16;95855.69;;;8.01;98.00
77207;BME280;66190;50.708;7.906;2023-12-29T10:52:41;95861.06;;;8.08;97.63
77207;BME280;66190;50.708;7.906;2023-12-29T10:55:10;95870.56;;;8.11;97.42
77207;BME280;66190;50.708;7.906;2023-12-29T10:57:39;95869.91;;;8.02;97.68
77207;BME280;66190;50.708;7.906;2023-12-29T11:00:06;95861.91;;;8.08;97.26
77207;BME280;66190;50.708;7.906;2023-12-29T11:02:33;95864.56;;;8.08;97.42
77207;BME280;66190;50.708;7.906;2023-12-29T11:05:09;95870.16;;;8.07;96.92
77207;BME280;66190;50.708;7.906;2023-12-29T11:07:39;95868.09;;;8.16;96.80
77207;BME280;66190;50.708;7.906;2023-12-29T11:10:06;95865.44;;;8.16;96.86
77207;BME280;66190;50.708;7.906;2023-12-29T11:12:34;95866.06;;;8.18;97.00
77207;BME280;66190;50.708;7.906;2023-12-29T11:15:02;95863.59;;;8.16;96.58
77207;BME280;66190;50.708;7.906;2023-12-29T11:17:29;95851.63;;;8.19;96.66
77207;BME280;66190;50.708;7.906;2023-12-29T11:19:55;95867.69;;;8.19;96.34
77207;BME280;66190;50.708;7.906;2023-12-29T11:22:23;95849.34;;;8.16;96.52
77207;BME280;66190;50.708;7.906;2023-12-29T11:24:49;95861.72;;;8.17;96.62
77207;BME280;66190;50.708;7.906;2023-12-29T11:27:16;95868.72;;;8.18;96.18
77207;BME280;66190;50.708;7.906;2023-12-29T11:29:43;95872.63;;;8.15;96.46
77207;BME280;66190;50.708;7.906;2023-12-29T11:32:17;95860.28;;;8.21;96.35
77207;BME280;66190;50.708;7.906;2023-12-29T11:34:57;95870.38;;;8.19;96.44
77207;BME280;66190;50.708;7.906;2023-12-29T11:40:20;95862.59;;;8.24;96.83
77207;BME280;66190;50.708;7.906;2023-12-29T11:42:49;95862.19;;;8.27;96.56
77207;BME280;66190;50.708;7.906;2023-12-29T11:45:31;95865.84;;;8.19;96.53
77207;BME280;66190;50.708;7.906;2023-12-29T11:48:04;95849.56;;;8.21;96.63
77207;BME280;66190;50.708;7.906;2023-12-29T11:50:40;95847.13;;;8.26;96.34
77207;BME280;66190;50.708;7.906;2023-12-29T11:53:06;95843.44;;;8.27;96.35
77207;BME280;66190;50.708;7.906;2023-12-29T11:55:37;95840.75;;;8.27;96.34
77207;BME280;66190;50.708;7.906;2023-12-29T11:58:04;95848.38;;;8.30;96.30
77207;BME280;66190;50.708;7.906;2023-12-29T12:00:46;95848.38;;;8.30;96.16
77207;BME280;66190;50.708;7.906;2023-12-29T12:03:23;95856.44;;;8.30;96.18
77207;BME280;66190;50.708;7.906;2023-12-29T12:05:50;95829.22;;;8.26;96.22
77207;BME280;66190;50.708;7.906;2023-12-29T12:08:35;95831.47;;;8.29;96.20
77207;BME280;66190;50.708;7.906;2023-12-29T12:13:59;95842.19;;;8.29;95.85
77207;BME280;66190;50.708;7.906;2023-12-29T12:19:10;95840.97;;;8.32;95.79
77207;BME280;66190;50.708;7.906;2023-12-29T12:21:38;95833.72;;;8.26;95.21
77207;BME280;66190;50.708;7.906;2023-12-29T12:24:05;95828.59;;;8.31;95.13
77207;BME280;66190;50.708;7.906;2023-12-29T12:26:31;95824.47;;;8.35;95.24
77207;BME280;66190;50.708;7.906;2023-12-29T12:28:58;95831.09;;;8.32;94.81
77207;BME280;66190;50.708;7.906;2023-12-29T12:31:24;95831.47;;;8.29;94.55
77207;BME280;66190;50.708;7.906;2023-12-29T12:33:56;95804.28;;;8.32;94.84
77207;BME280;66190;50.708;7.906;2023-12-29T12:36:23;95807.19;;;8.37;94.32
77207;BME280;66190;50.708;7.906;2023-12-29T12:38:58;95799.34;;;8.36;94.61
77207;BME280;66190;50.708;7.906;2023-12-29T12:41:25;95799.94;;;8.31;93.75
77207;BME280;66190;50.708;7.906;2023-12-29T12:44:10;95805.28;;;8.38;93.59
77207;BME280;66190;50.708;7.906;2023-12-29T12:46:50;95794.41;;;8.46;93.68
77207;BME280;66190;50.708;7.906;2023-12-29T12:49:19;95798.28;;;8.43;93.65
77207;BME280;66190;50.708;7.906;2023-12-29T12:51:45;95793.16;;;8.42;93.46
77207;BME280;66190;50.708;7.906;2023-12-29T12:54:11;95799.53;;;8.47;93.35
77207;BME280;66190;50.708;7.906;2023-12-29T12:56:44;95795.44;;;8.51;93.80
77207;BME280;66190;50.708;7.906;2023-12-29T12:59:10;95784.72;;;8.51;93.69
77207;BME280;66190;50.708;7.906;2023-12-29T13:01:37;95785.31;;;8.53;93.97
77207;BME280;66190;50.708;7.906;2023-12-29T13:04:03;95795.41;;;8.45;93.94
77207;BME280;66190;50.708;7.906;2023-12-29T13:06:31;95780.56;;;8.49;94.31
77207;BME280;66190;50.708;7.906;2023-12-29T13:08:58;95779.31;;;8.38;93.98
77207;BME280;66190;50.708;7.906;2023-12-29T13:11:24;95792.50;;;8.46;93.98
77207;BME280;66190;50.708;7.906;2023-12-29T13:13:52;95797.06;;;8.46;94.29
77207;BME280;66190;50.708;7.906;2023-12-29T13:16:36;95784.69;;;8.45;94.10
77207;BME280;66190;50.708;7.906;2023-12-29T13:19:19;95788.63;;;8.42;94.04
77207;BME280;66190;50.708;7.906;2023-12-29T13:21:54;95783.47;;;8.41;94.32